sensor_id;sensor_type;location;lat;lon;timestamp;pressure;altitude;pressure_sealevel;temperature;humidity
9249;BME280;4660;41.768;26.198;2023-11-19T00:01:35;100243.16;;;7.59;100.00
9249;BME280;4660;41.768;26.198;2023-11-19T00:04:01;100243.16;;;7.59;100.00
9249;BME280;4660;41.768;26.198;2023-11-19T00:06:26;100246.69;;;7.59;100.00
9249;BME280;4660;41.768;26.198;2023-11-19T00:08:53;100248.66;;;7.57;100.00
9249;BME280;4660;41.768;26.198;2023-11-19T00:11:18;100250.59;;;7.55;100.00
9249;BME280;4660;41.768;26.198;2023-11-19T00:13:44;100209.81;;;7.42;100.00
9249;BME280;4660;41.768;26.198;2023-11-19T00:16:09;100260.25;;;7.37;100.00
9249;BME280;4660;41.768;26.198;2023-11-19T00:18:35;100266.53;;;7.57;100.00
9249;BME280;4660;41.768;26.198;2023-11-19T00:21:05;100283.03;;;7.62;100.00
9249;BME280;4660;41.768;26.198;2023-11-19T00:23:30;100263.31;;;7.63;100.00
9249;BME280;4660;41.768;26.198;2023-11-19T00:25:56;100280.22;;;7.63;100.00
9249;BME280;4660;41.768;26.198;2023-11-19T00:28:21;100275.50;;;7.46;100.00
9249;BME280;4660;41.768;26.198;2023-11-19T00:30:47;100303.63;;;7.61;100.00
9249;BME280;4660;41.768;26.198;2023-11-19T00:33:12;100295.34;;;7.64;100.00
9249;BME280;4660;41.768;26.198;2023-11-19T00:35:38;100290.38;;;7.60;100.00
9249;BME280;4660;41.768;26.198;2023-11-19T00:38:03;100308.50;;;7.56;100.00
9249;BME280;4660;41.768;26.198;2023-11-19T00:40:29;100315.00;;;7.54;100.00
9249;BME280;4660;41.768;26.198;2023-11-19T00:42:55;100313.00;;;7.56;100.00
9249;BME280;4660;41.768;26.198;2023-11-19T00:45:20;100294.69;;;7.51;100.00
9249;BME280;4660;41.768;26.198;2023-11-19T00:47:46;100301.66;;;7.42;100.00
9249;BME280;4660;41.768;26.198;2023-11-19T00:50:12;100313.81;;;7.47;100.00
9249;BME280;4660;41.768;26.198;2023-11-19T00:52:38;100316.34;;;7.48;100.00
9249;BME280;4660;41.768;26.198;2023-11-19T00:55:04;100309.78;;;7.52;100.00
9249;BME280;4660;41.768;26.198;2023-11-19T00:57:31;100314.66;;;7.47;100.00
9249;BME280;4660;41.768;26.198;2023-11-19T00:59:59;100306.78;;;7.45;100.00
9249;BME280;4660;41.768;26.198;2023-11-19T01:02:24;100315.66;;;7.46;100.00
9249;BME280;4660;41.768;26.198;2023-11-19T01:04:50;100326.28;;;7.57;100.00
9249;BME280;4660;41.768;26.198;2023-11-19T01:07:16;100313.63;;;7.59;100.00
9249;BME280;4660;41.768;26.198;2023-11-19T01:09:42;100315.59;;;7.57;100.00
9249;BME280;4660;41.768;26.198;2023-11-19T01:12:08;100318.50;;;7.54;100.00
9249;BME280;4660;41.768;26.198;2023-11-19T01:14:35;100317.47;;;7.45;100.00
9249;BME280;4660;41.768;26.198;2023-11-19T01:17:01;100327.47;;;7.64;100.00
9249;BME280;4660;41.768;26.198;2023-11-19T01:19:27;100342.94;;;7.61;100.00
9249;BME280;4660;41.768;26.198;2023-11-19T01:21:54;100364.34;;;7.61;100.00
9249;BME280;4660;41.768;26.198;2023-11-19T01:24:19;100337.91;;;7.47;100.00
9249;BME280;4660;41.768;26.198;2023-11-19T01:26:45;100367.81;;;7.52;100.00
9249;BME280;4660;41.768;26.198;2023-11-19T01:29:15;100349.78;;;7.54;100.00
9249;BME280;4660;41.768;26.198;2023-11-19T01:31:45;100354.09;;;7.45;100.00
9249;BME280;4660;41.768;26.198;2023-11-19T01:34:16;100360.03;;;7.49;100.00
9249;BME280;4660;41.768;26.198;2023-11-19T01:36:42;100358.94;;;7.51;100.00
9249;BME280;4660;41.768;26.198;2023-11-19T01:39:07;100365.78;;;7.65;100.00
9249;BME280;4660;41.768;26.198;2023-11-19T01:41:36;100355.78;;;7.67;100.00
9249;BME280;4660;41.768;26.198;2023-11-19T01:44:02;100365.91;;;7.63;100.00
9249;BME280;4660;41.768;26.198;2023-11-19T01:46:27;100363.13;;;7.65;100.00
9249;BME280;4660;41.768;26.198;2023-11-19T01:48:54;100370.41;;;7.63;100.00
9249;BME280;4660;41.768;26.198;2023-11-19T01:51:21;100375.91;;;7.61;100.00
9249;BME280;4660;41.768;26.198;2023-11-19T01:53:47;100370.28;;;7.64;100.00
9249;BME280;4660;41.768;26.198;2023-11-19T01:56:14;100362.38;;;7.63;100.00
9249;BME280;4660;41.768;26.198;2023-11-19T01:58:41;100363.50;;;7.60;100.00
9249;BME280;4660;41.768;26.198;2023-11-19T02:01:10;100383.34;;;7.58;100.00
9249;BME280;4660;41.768;26.198;2023-11-19T02:03:37;100359.66;;;7.53;100.00
9249;BME280;4660;41.768;26.198;2023-11-19T02:06:03;100400.00;;;7.61;100.00
9249;BME280;4660;41.768;26.198;2023-11-19T02:08:29;100385.06;;;7.59;100.00
9249;BME280;4660;41.768;26.198;2023-11-19T02:10:55;100386.13;;;7.56;100.00
9249;BME280;4660;41.768;26.198;2023-11-19T02:13:24;100341.03;;;7.31;100.00
9249;BME280;4660;41.768;26.198;2023-11-19T02:15:50;100365.66;;;7.45;100.00
9249;BME280;4660;41.768;26.198;2023-11-19T02:18:34;100362.19;;;7.55;100.00
9249;BME280;4660;41.768;26.198;2023-11-19T02:20:59;100365.50;;;7.68;100.00
9249;BME280;4660;41.768;26.198;2023-11-19T02:23:26;100370.88;;;7.68;100.00
9249;BME280;4660;41.768;26.198;2023-11-19T02:26:05;100365.84;;;7.54;100.00
9249;BME280;4660;41.768;26.198;2023-11-19T02:28:36;100355.41;;;7.51;100.00
9249;BME280;4660;41.768;26.198;2023-11-19T02:31:02;100366.03;;;7.41;100.00
9249;BME280;4660;41.768;26.198;2023-11-19T02:33:30;100364.38;;;7.50;100.00
9249;BME280;4660;41.768;26.198;2023-11-19T02:35:56;100350.09;;;7.39;100.00
9249;BME280;4660;41.768;26.198;2023-11-19T02:38:21;100303.75;;;7.18;100.00
9249;BME280;4660;41.768;26.198;2023-11-19T02:40:48;100363.69;;;7.48;100.00
9249;BME280;4660;41.768;26.198;2023-11-19T02:43:14;100376.34;;;7.45;100.00
9249;BME280;4660;41.768;26.198;2023-11-19T02:45:40;100356.63;;;7.47;100.00
9249;BME280;4660;41.768;26.198;2023-11-19T02:48:06;100357.84;;;7.42;100.00
9249;BME280;4660;41.768;26.198;2023-11-19T02:50:31;100342.78;;;7.41;100.00
9249;BME280;4660;41.768;26.198;2023-11-19T02:52:57;100336.44;;;7.42;100.00
9249;BME280;4660;41.768;26.198;2023-11-19T02:55:23;100345.88;;;7.37;100.00
9249;BME280;4660;41.768;26.198;2023-11-19T02:57:50;100341.44;;;7.47;100.00
9249;BME280;4660;41.768;26.198;2023-11-19T03:00:20;100345.34;;;7.43;100.00
9249;BME280;4660;41.768;26.198;2023-11-19T03:02:53;100338.94;;;7.34;100.00
9249;BME280;4660;41.768;26.198;2023-11-19T03:05:26;100349.41;;;7.37;100.00
9249;BME280;4660;41.768;26.198;2023-11-19T03:07:52;100360.09;;;7.37;100.00
9249;BME280;4660;41.768;26.198;2023-11-19T03:10:18;100365.44;;;7.37;100.00
9249;BME280;4660;41.768;26.198;2023-11-19T03:12:44;100361.09;;;7.36;100.00
9249;BME280;4660;41.768;26.198;2023-11-19T03:15:11;100352.13;;;7.26;100.00
9249;BME280;4660;41.768;26.198;2023-11-19T03:17:41;100356.44;;;7.38;100.00
9249;BME280;4660;41.768;26.198;2023-11-19T03:20:08;100369.81;;;7.38;100.00
9249;BME280;4660;41.768;26.198;2023-11-19T03:22:40;100361.78;;;7.38;100.00
9249;BME280;4660;41.768;26.198;2023-11-19T03:25:10;100364.00;;;7.33;100.00
9249;BME280;4660;41.768;26.198;2023-11-19T03:27:36;100383.44;;;7.35;100.00
9249;BME280;4660;41.768;26.198;2023-11-19T03:30:05;100355.97;;;7.33;100.00
9249;BME280;4660;41.768;26.198;2023-11-19T03:32:32;100368.25;;;7.36;100.00
9249;BME280;4660;41.768;26.198;2023-11-19T03:34:57;100360.34;;;7.34;100.00
9249;BME280;4660;41.768;26.198;2023-11-19T03:37:23;100375.31;;;7.37;100.00
9249;BME280;4660;41.768;26.198;2023-11-19T03:39:49;100389.03;;;7.43;100.00
9249;BME280;4660;41.768;26.198;2023-11-19T03:42:14;100375.19;;;7.38;100.00
9249;BME280;4660;41.768;26.198;2023-11-19T03:44:40;100379.59;;;7.28;100.00
9249;BME280;4660;41.768;26.198;2023-11-19T03:47:05;100390.28;;;7.28;100.00
9249;BME280;4660;41.768;26.198;2023-11-19T03:49:31;100401.59;;;7.32;100.00
9249;BME280;4660;41.768;26.198;2023-11-19T03:51:57;100392.97;;;7.28;100.00
9249;BME280;4660;41.768;26.198;2023-11-19T03:54:23;100406.59;;;7.25;100.00
9249;BME280;4660;41.768;26.198;2023-11-19T03:56:48;100406.59;;;7.25;100.00
9249;BME280;4660;41.768;26.198;2023-11-19T03:59:14;100418.78;;;7.18;100.00
9249;BME280;4660;41.768;26.198;2023-11-19T04:01:41;100427.03;;;7.26;100.00
9249;BME280;4660;41.768;26.198;2023-11-19T04:04:06;100421.94;;;7.23;100.00
9249;BME280;4660;41.768;26.198;2023-11-19T04:06:32;100419.28;;;7.23;100.00
9249;BME280;4660;41.768;26.198;2023-11-19T04:08:57;100423.50;;;7.26;100.00
9249;BME280;4660;41.768;26.198;2023-11-19T04:11:23;100420.19;;;7.33;100.00
9249;BME280;4660;41.768;26.198;2023-11-19T04:13:49;100428.34;;;7.32;100.00
9249;BME280;4660;41.768;26.198;2023-11-19T04:16:14;100424.91;;;7.41;100.00
9249;BME280;4660;41.768;26.198;2023-11-19T04:18:40;100431.38;;;7.38;100.00
9249;BME280;4660;41.768;26.198;2023-11-19T04:21:07;100429.19;;;7.32;100.00
9249;BME280;4660;41.768;26.198;2023-11-19T04:23:33;100436.53;;;7.30;100.00
9249;BME280;4660;41.768;26.198;2023-11-19T04:26:02;100408.59;;;7.12;100.00
9249;BME280;4660;41.768;26.198;2023-11-19T04:28:27;100460.59;;;7.30;100.00
9249;BME280;4660;41.768;26.198;2023-11-19T04:30:53;100454.50;;;7.28;100.00
9249;BME280;4660;41.768;26.198;2023-11-19T04:33:18;100473.94;;;7.41;100.00
9249;BME280;4660;41.768;26.198;2023-11-19T04:35:44;100474.69;;;7.32;100.00
9249;BME280;4660;41.768;26.198;2023-11-19T04:38:09;100485.03;;;7.37;100.00
9249;BME280;4660;41.768;26.198;2023-11-19T04:40:35;100436.31;;;7.11;100.00
9249;BME280;4660;41.768;26.198;2023-11-19T04:43:01;100491.47;;;7.34;100.00
9249;BME280;4660;41.768;26.198;2023-11-19T04:45:26;100493.44;;;7.32;100.00
9249;BME280;4660;41.768;26.198;2023-11-19T04:47:52;100488.91;;;7.33;100.00
9249;BME280;4660;41.768;26.198;2023-11-19T04:50:17;100499.63;;;7.33;100.00
9249;BME280;4660;41.768;26.198;2023-11-19T04:52:43;100498.06;;;7.30;100.00
9249;BME280;4660;41.768;26.198;2023-11-19T04:55:12;100493.44;;;7.32;100.00
9249;BME280;4660;41.768;26.198;2023-11-19T04:57:40;100491.22;;;7.37;100.00
9249;BME280;4660;41.768;26.198;2023-11-19T05:00:05;100500.34;;;7.35;100.00
9249;BME280;4660;41.768;26.198;2023-11-19T05:02:34;100522.84;;;7.32;100.00
9249;BME280;4660;41.768;26.198;2023-11-19T05:05:06;100505.81;;;7.33;100.00
9249;BME280;4660;41.768;26.198;2023-11-19T05:07:32;100529.41;;;7.39;100.00
9249;BME280;4660;41.768;26.198;2023-11-19T05:09:58;100535.47;;;7.41;100.00
9249;BME280;4660;41.768;26.198;2023-11-19T05:12:23;100525.53;;;7.43;100.00
9249;BME280;4660;41.768;26.198;2023-11-19T05:14:49;100539.63;;;7.34;100.00
9249;BME280;4660;41.768;26.198;2023-11-19T05:17:17;100551.31;;;7.44;100.00
9249;BME280;4660;41.768;26.198;2023-11-19T05:19:43;100542.28;;;7.45;100.00
9249;BME280;4660;41.768;26.198;2023-11-19T05:22:10;100554.56;;;7.48;100.00
9249;BME280;4660;41.768;26.198;2023-11-19T05:24:35;100551.03;;;7.48;100.00
9249;BME280;4660;41.768;26.198;2023-11-19T05:27:02;100555.88;;;7.65;100.00
9249;BME280;4660;41.768;26.198;2023-11-19T05:29:27;100554.41;;;7.72;100.00
9249;BME280;4660;41.768;26.198;2023-11-19T05:31:53;100569.41;;;7.84;100.00
9249;BME280;4660;41.768;26.198;2023-11-19T05:34:20;100551.72;;;7.72;100.00
9249;BME280;4660;41.768;26.198;2023-11-19T05:36:46;100524.00;;;7.62;100.00
9249;BME280;4660;41.768;26.198;2023-11-19T05:39:13;100559.63;;;7.62;100.00
9249;BME280;4660;41.768;26.198;2023-11-19T05:41:38;100555.91;;;7.42;100.00
9249;BME280;4660;41.768;26.198;2023-11-19T05:44:04;100549.63;;;7.32;100.00
9249;BME280;4660;41.768;26.198;2023-11-19T05:46:30;100538.69;;;7.13;100.00
9249;BME280;4660;41.768;26.198;2023-11-19T05:48:56;100592.94;;;7.37;100.00
9249;BME280;4660;41.768;26.198;2023-11-19T05:51:22;100575.16;;;7.36;100.00
9249;BME280;4660;41.768;26.198;2023-11-19T05:53:49;100549.75;;;7.31;100.00
9249;BME280;4660;41.768;26.198;2023-11-19T05:56:15;100573.69;;;7.32;100.00
9249;BME280;4660;41.768;26.198;2023-11-19T05:58:46;100599.34;;;7.57;100.00
9249;BME280;4660;41.768;26.198;2023-11-19T06:01:13;100569.56;;;7.39;100.00
9249;BME280;4660;41.768;26.198;2023-11-19T06:03:39;100593.94;;;7.68;100.00
9249;BME280;4660;41.768;26.198;2023-11-19T06:06:05;100578.28;;;7.53;100.00
9249;BME280;4660;41.768;26.198;2023-11-19T06:08:31;100604.31;;;7.62;100.00
9249;BME280;4660;41.768;26.198;2023-11-19T06:10:57;100582.16;;;7.60;100.00
9249;BME280;4660;41.768;26.198;2023-11-19T06:13:23;100592.13;;;7.69;100.00
9249;BME280;4660;41.768;26.198;2023-11-19T06:15:50;100594.66;;;7.70;100.00
9249;BME280;4660;41.768;26.198;2023-11-19T06:18:16;100593.06;;;7.79;100.00
9249;BME280;4660;41.768;26.198;2023-11-19T06:20:45;100589.41;;;7.80;100.00
9249;BME280;4660;41.768;26.198;2023-11-19T06:23:11;100593.31;;;7.76;100.00
9249;BME280;4660;41.768;26.198;2023-11-19T06:25:38;100624.25;;;7.69;100.00
9249;BME280;4660;41.768;26.198;2023-11-19T06:28:03;100597.72;;;7.66;100.00
9249;BME280;4660;41.768;26.198;2023-11-19T06:30:30;100623.16;;;7.71;100.00
9249;BME280;4660;41.768;26.198;2023-11-19T06:32:58;100598.47;;;7.57;100.00
9249;BME280;4660;41.768;26.198;2023-11-19T06:35:24;100619.50;;;7.72;100.00
9249;BME280;4660;41.768;26.198;2023-11-19T06:37:51;100546.94;;;7.43;100.00
9249;BME280;4660;41.768;26.198;2023-11-19T06:40:17;100600.38;;;7.77;100.00
9249;BME280;4660;41.768;26.198;2023-11-19T06:42:43;100608.72;;;7.95;100.00
9249;BME280;4660;41.768;26.198;2023-11-19T06:45:09;100605.94;;;7.85;100.00
9249;BME280;4660;41.768;26.198;2023-11-19T06:47:35;100603.59;;;7.92;100.00
9249;BME280;4660;41.768;26.198;2023-11-19T06:50:01;100613.03;;;7.86;100.00
9249;BME280;4660;41.768;26.198;2023-11-19T06:52:30;100600.88;;;7.71;100.00
9249;BME280;4660;41.768;26.198;2023-11-19T06:54:57;100598.19;;;7.71;100.00
9249;BME280;4660;41.768;26.198;2023-11-19T06:57:23;100603.25;;;7.85;100.00
9249;BME280;4660;41.768;26.198;2023-11-19T06:59:49;100618.09;;;8.00;100.00
9249;BME280;4660;41.768;26.198;2023-11-19T07:02:15;100622.19;;;8.05;100.00
9249;BME280;4660;41.768;26.198;2023-11-19T07:04:40;100604.69;;;8.00;100.00
9249;BME280;4660;41.768;26.198;2023-11-19T07:07:07;100592.88;;;8.03;100.00
9249;BME280;4660;41.768;26.198;2023-11-19T07:09:32;100584.88;;;8.13;100.00
9249;BME280;4660;41.768;26.198;2023-11-19T07:11:59;100569.19;;;7.87;100.00
9249;BME280;4660;41.768;26.198;2023-11-19T07:14:27;100614.22;;;8.14;100.00
9249;BME280;4660;41.768;26.198;2023-11-19T07:16:54;100569.66;;;8.13;100.00
9249;BME280;4660;41.768;26.198;2023-11-19T07:19:21;100591.94;;;8.14;100.00
9249;BME280;4660;41.768;26.198;2023-11-19T07:21:46;100557.19;;;8.03;100.00
9249;BME280;4660;41.768;26.198;2023-11-19T07:24:12;100572.75;;;8.09;100.00
9249;BME280;4660;41.768;26.198;2023-11-19T07:26:47;100572.75;;;8.09;100.00
9249;BME280;4660;41.768;26.198;2023-11-19T07:29:13;100587.38;;;8.05;100.00
9249;BME280;4660;41.768;26.198;2023-11-19T07:31:42;100554.97;;;8.08;100.00
9249;BME280;4660;41.768;26.198;2023-11-19T07:34:10;100602.41;;;8.49;100.00
9249;BME280;4660;41.768;26.198;2023-11-19T07:36:37;100596.97;;;8.60;100.00
9249;BME280;4660;41.768;26.198;2023-11-19T07:39:03;100562.13;;;8.39;100.00
9249;BME280;4660;41.768;26.198;2023-11-19T07:41:31;100616.31;;;8.64;100.00
9249;BME280;4660;41.768;26.198;2023-11-19T07:43:56;100607.50;;;8.73;100.00
9249;BME280;4660;41.768;26.198;2023-11-19T07:46:23;100624.50;;;8.83;100.00
9249;BME280;4660;41.768;26.198;2023-11-19T07:48:52;100619.09;;;8.73;100.00
9249;BME280;4660;41.768;26.198;2023-11-19T07:51:18;100605.16;;;8.59;100.00
9249;BME280;4660;41.768;26.198;2023-11-19T07:53:44;100588.09;;;8.27;100.00
9249;BME280;4660;41.768;26.198;2023-11-19T07:56:10;100623.75;;;8.50;100.00
9249;BME280;4660;41.768;26.198;2023-11-19T07:58:36;100620.84;;;8.42;100.00
9249;BME280;4660;41.768;26.198;2023-11-19T08:01:02;100652.13;;;8.53;100.00
9249;BME280;4660;41.768;26.198;2023-11-19T08:03:31;100645.63;;;8.55;100.00
9249;BME280;4660;41.768;26.198;2023-11-19T08:05:57;100639.56;;;8.74;100.00
9249;BME280;4660;41.768;26.198;2023-11-19T08:08:22;100665.56;;;9.04;100.00
9249;BME280;4660;41.768;26.198;2023-11-19T08:10:48;100655.56;;;9.06;100.00
9249;BME280;4660;41.768;26.198;2023-11-19T08:13:14;100661.75;;;9.07;100.00
9249;BME280;4660;41.768;26.198;2023-11-19T08:15:40;100651.59;;;9.01;100.00
9249;BME280;4660;41.768;26.198;2023-11-19T08:18:06;100664.59;;;9.05;100.00
9249;BME280;4660;41.768;26.198;2023-11-19T08:20:33;100696.25;;;9.12;100.00
9249;BME280;4660;41.768;26.198;2023-11-19T08:22:58;100696.78;;;9.05;100.00
9249;BME280;4660;41.768;26.198;2023-11-19T08:25:24;100718.34;;;8.94;100.00
9249;BME280;4660;41.768;26.198;2023-11-19T08:27:50;100686.72;;;8.77;100.00
9249;BME280;4660;41.768;26.198;2023-11-19T08:30:17;100684.69;;;8.69;100.00
9249;BME280;4660;41.768;26.198;2023-11-19T08:32:43;100740.47;;;8.87;100.00
9249;BME280;4660;41.768;26.198;2023-11-19T08:35:08;100709.03;;;8.98;100.00
9249;BME280;4660;41.768;26.198;2023-11-19T08:37:34;100736.72;;;9.20;100.00
9249;BME280;4660;41.768;26.198;2023-11-19T08:40:02;100719.28;;;9.35;100.00
9249;BME280;4660;41.768;26.198;2023-11-19T08:42:28;100743.44;;;9.35;100.00
9249;BME280;4660;41.768;26.198;2023-11-19T08:44:55;100732.09;;;9.52;100.00
9249;BME280;4660;41.768;26.198;2023-11-19T08:47:21;100717.75;;;9.42;100.00
9249;BME280;4660;41.768;26.198;2023-11-19T08:49:51;100735.00;;;9.70;100.00
9249;BME280;4660;41.768;26.198;2023-11-19T08:52:20;100730.66;;;9.79;100.00
9249;BME280;4660;41.768;26.198;2023-11-19T08:54:46;100752.56;;;9.84;100.00
9249;BME280;4660;41.768;26.198;2023-11-19T08:57:11;100777.66;;;9.94;100.00
9249;BME280;4660;41.768;26.198;2023-11-19T08:59:37;100769.59;;;9.94;100.00
9249;BME280;4660;41.768;26.198;2023-11-19T09:02:05;100754.66;;;10.20;100.00
9249;BME280;4660;41.768;26.198;2023-11-19T09:04:34;100759.28;;;10.30;100.00
9249;BME280;4660;41.768;26.198;2023-11-19T09:07:01;100721.94;;;9.96;100.00
9249;BME280;4660;41.768;26.198;2023-11-19T09:09:27;100762.72;;;10.11;100.00
9249;BME280;4660;41.768;26.198;2023-11-19T09:11:52;100755.78;;;9.68;100.00
9249;BME280;4660;41.768;26.198;2023-11-19T09:14:22;100768.44;;;9.87;100.00
9249;BME280;4660;41.768;26.198;2023-11-19T09:16:51;100766.38;;;10.00;100.00
9249;BME280;4660;41.768;26.198;2023-11-19T09:19:18;100773.31;;;10.12;100.00
9249;BME280;4660;41.768;26.198;2023-11-19T09:21:45;100772.34;;;10.13;100.00
9249;BME280;4660;41.768;26.198;2023-11-19T09:24:11;100753.72;;;10.22;100.00
9249;BME280;4660;41.768;26.198;2023-11-19T09:26:36;100770.03;;;10.30;100.00
9249;BME280;4660;41.768;26.198;2023-11-19T09:29:04;100732.38;;;10.30;100.00
9249;BME280;4660;41.768;26.198;2023-11-19T09:31:30;100754.91;;;10.48;100.00
9249;BME280;4660;41.768;26.198;2023-11-19T09:33:55;100756.19;;;10.44;100.00
9249;BME280;4660;41.768;26.198;2023-11-19T09:36:21;100760.28;;;10.48;100.00
9249;BME280;4660;41.768;26.198;2023-11-19T09:38:47;100742.31;;;10.58;100.00
9249;BME280;4660;41.768;26.198;2023-11-19T09:41:12;100744.72;;;10.81;100.00
9249;BME280;4660;41.768;26.198;2023-11-19T09:43:40;100740.91;;;10.73;100.00
9249;BME280;4660;41.768;26.198;2023-11-19T09:46:09;100740.19;;;10.52;100.00
9249;BME280;4660;41.768;26.198;2023-11-19T09:48:38;100741.44;;;10.48;100.00
9249;BME280;4660;41.768;26.198;2023-11-19T09:51:06;100732.97;;;10.72;100.00
9249;BME280;4660;41.768;26.198;2023-11-19T09:53:37;100725.03;;;10.70;95.54
9249;BME280;4660;41.768;26.198;2023-11-19T09:56:06;100746.28;;;10.73;94.21
9249;BME280;4660;41.768;26.198;2023-11-19T09:58:34;100747.53;;;10.69;95.06
9249;BME280;4660;41.768;26.198;2023-11-19T10:01:00;100746.41;;;10.62;94.37
9249;BME280;4660;41.768;26.198;2023-11-19T10:03:32;100732.38;;;10.49;95.24
9249;BME280;4660;41.768;26.198;2023-11-19T10:06:00;100754.19;;;10.56;95.29
9249;BME280;4660;41.768;26.198;2023-11-19T10:08:26;100746.69;;;10.50;95.45
9249;BME280;4660;41.768;26.198;2023-11-19T10:10:53;100755.34;;;10.53;95.34
9249;BME280;4660;41.768;26.198;2023-11-19T10:13:19;100741.16;;;10.70;93.66
9249;BME280;4660;41.768;26.198;2023-11-19T10:15:45;100760.16;;;11.08;92.50
9249;BME280;4660;41.768;26.198;2023-11-19T10:18:14;100762.72;;;11.56;91.70
9249;BME280;4660;41.768;26.198;2023-11-19T10:20:42;100767.94;;;11.67;90.09
9249;BME280;4660;41.768;26.198;2023-11-19T10:23:09;100746.38;;;11.67;88.76
9249;BME280;4660;41.768;26.198;2023-11-19T10:25:36;100732.25;;;11.93;89.69
9249;BME280;4660;41.768;26.198;2023-11-19T10:28:02;100766.47;;;12.20;88.81
9249;BME280;4660;41.768;26.198;2023-11-19T10:30:30;100756.44;;;12.12;88.25
9249;BME280;4660;41.768;26.198;2023-11-19T10:35:35;100760.28;;;11.63;89.09
9249;BME280;4660;41.768;26.198;2023-11-19T10:38:13;100727.91;;;11.45;88.09
9249;BME280;4660;41.768;26.198;2023-11-19T10:40:42;100767.91;;;11.87;87.83
9249;BME280;4660;41.768;26.198;2023-11-19T10:43:08;100764.50;;;11.75;88.02
9249;BME280;4660;41.768;26.198;2023-11-19T10:45:36;100761.72;;;11.67;88.67
9249;BME280;4660;41.768;26.198;2023-11-19T10:48:05;100745.38;;;11.68;87.25
9249;BME280;4660;41.768;26.198;2023-11-19T10:50:40;100753.19;;;11.81;88.20
9249;BME280;4660;41.768;26.198;2023-11-19T10:53:07;100728.44;;;11.95;88.29
9249;BME280;4660;41.768;26.198;2023-11-19T10:55:38;100733.34;;;11.72;86.35
9249;BME280;4660;41.768;26.198;2023-11-19T10:58:05;100742.06;;;11.94;87.77
9249;BME280;4660;41.768;26.198;2023-11-19T11:00:59;100760.38;;;12.18;87.93
9249;BME280;4660;41.768;26.198;2023-11-19T11:03:25;100760.91;;;12.21;85.49
9249;BME280;4660;41.768;26.198;2023-11-19T11:05:53;100730.94;;;12.24;86.21
9249;BME280;4660;41.768;26.198;2023-11-19T11:08:20;100710.97;;;12.17;85.73
9249;BME280;4660;41.768;26.198;2023-11-19T11:10:57;100751.09;;;12.30;84.96
9249;BME280;4660;41.768;26.198;2023-11-19T11:13:25;100742.16;;;12.29;84.93
9249;BME280;4660;41.768;26.198;2023-11-19T11:16:07;100739.25;;;12.13;85.12
9249;BME280;4660;41.768;26.198;2023-11-19T11:18:33;100724.13;;;12.02;84.50
9249;BME280;4660;41.768;26.198;2023-11-19T11:21:06;100741.84;;;12.05;83.72
9249;BME280;4660;41.768;26.198;2023-11-19T11:31:49;100728.66;;;12.29;83.92
9249;BME280;4660;41.768;26.198;2023-11-19T11:34:47;100725.06;;;12.11;86.42
9249;BME280;4660;41.768;26.198;2023-11-19T11:39:57;100705.03;;;11.58;85.53
9249;BME280;4660;41.768;26.198;2023-11-19T11:45:09;100734.56;;;11.50;85.11
9249;BME280;4660;41.768;26.198;2023-11-19T11:50:16;100739.00;;;11.69;85.38
9249;BME280;4660;41.768;26.198;2023-11-19T11:55:36;100757.91;;;11.60;86.00
9249;BME280;4660;41.768;26.198;2023-11-19T11:58:05;100742.75;;;11.58;86.23
9249;BME280;4660;41.768;26.198;2023-11-19T12:00:51;100750.72;;;11.78;83.94
9249;BME280;4660;41.768;26.198;2023-11-19T12:03:21;100746.63;;;11.83;84.13
9249;BME280;4660;41.768;26.198;2023-11-19T12:05:49;100768.19;;;11.93;83.34
9249;BME280;4660;41.768;26.198;2023-11-19T12:08:18;100735.00;;;11.83;83.22
9249;BME280;4660;41.768;26.198;2023-11-19T12:10:47;100750.28;;;11.92;83.10
9249;BME280;4660;41.768;26.198;2023-11-19T12:13:14;100739.22;;;11.85;82.08
9249;BME280;4660;41.768;26.198;2023-11-19T12:18:28;100737.75;;;12.01;81.64
9249;BME280;4660;41.768;26.198;2023-11-19T12:20:59;100751.88;;;12.12;81.56
9249;BME280;4660;41.768;26.198;2023-11-19T12:23:32;100768.91;;;12.13;81.71
9249;BME280;4660;41.768;26.198;2023-11-19T12:26:01;100764.22;;;12.15;81.89
9249;BME280;4660;41.768;26.198;2023-11-19T12:28:27;100725.81;;;12.03;80.98
9249;BME280;4660;41.768;26.198;2023-11-19T12:30:53;100768.19;;;12.38;80.99
9249;BME280;4660;41.768;26.198;2023-11-19T12:33:19;100754.28;;;12.16;80.88
9249;BME280;4660;41.768;26.198;2023-11-19T12:35:47;100772.81;;;12.01;80.52
9249;BME280;4660;41.768;26.198;2023-11-19T12:38:23;100744.00;;;12.01;82.07
9249;BME280;4660;41.768;26.198;2023-11-19T12:41:08;100757.06;;;12.24;81.46
9249;BME280;4660;41.768;26.198;2023-11-19T12:43:39;100726.66;;;12.04;81.70
9249;BME280;4660;41.768;26.198;2023-11-19T12:46:24;100748.13;;;12.23;80.37
9249;BME280;4660;41.768;26.198;2023-11-19T12:48:52;100696.28;;;11.74;80.06
9249;BME280;4660;41.768;26.198;2023-11-19T12:51:19;100736.28;;;12.06;81.04
9249;BME280;4660;41.768;26.198;2023-11-19T12:53:49;100751.88;;;12.12;81.18
9249;BME280;4660;41.768;26.198;2023-11-19T12:56:16;100749.19;;;12.12;80.46
9249;BME280;4660;41.768;26.198;2023-11-19T12:58:43;100747.91;;;12.17;80.48
9249;BME280;4660;41.768;26.198;2023-11-19T13:01:10;100750.13;;;12.21;79.67
9249;BME280;4660;41.768;26.198;2023-11-19T13:03:40;100724.72;;;11.96;80.37
9249;BME280;4660;41.768;26.198;2023-11-19T13:06:09;100746.22;;;12.06;79.89
9249;BME280;4660;41.768;26.198;2023-11-19T13:08:48;100756.44;;;12.12;81.29
9249;BME280;4660;41.768;26.198;2023-11-19T13:11:34;100761.97;;;12.10;80.46
9249;BME280;4660;41.768;26.198;2023-11-19T13:14:03;100749.78;;;12.06;80.86
9249;BME280;4660;41.768;26.198;2023-11-19T13:16:31;100736.75;;;12.02;79.75
9249;BME280;4660;41.768;26.198;2023-11-19T13:18:57;100748.75;;;12.17;81.13
9249;BME280;4660;41.768;26.198;2023-11-19T13:21:26;100747.66;;;12.10;80.09
9249;BME280;4660;41.768;26.198;2023-11-19T13:23:51;100717.16;;;12.00;80.75
9249;BME280;4660;41.768;26.198;2023-11-19T13:26:19;100748.59;;;12.19;80.05